Check out our new BloomSky Weather System.

Active alerts


No alerts


Thunder radar  blitzortung!


Rain radar more information rain snow radar


Visit our other weather sites:

Template documentation
and downloads

And another site



Weather Underground History page Text

Daily Summary for September 17, 2017 Units:  English    Metric   Both
« Previous Day
Next Day »
Daily Weekly Monthly Yearly Custom
  High: Low: Average:
Temperature: TemperatureF °F 69.6 °F 81.2 °F
Dew Point: DewpointF °F 69.3 °F 73.4 °F
Humidity: Humidity % 49 % 79 %
Wind Speed: WindSpeedMPH mph 0.0 mph 0.7 mph
Wind Gust: WindSpeedGustMPH mph - -
Wind:- - SE
Pressure: PressureIn in 29.93 in -
Precipitation: 0.00 in    
Historical Graphs
 
 
Tabular Data for September 17, 2017
Time Temperature Dew Point Pressure Wind Wind Speed Wind Gust Humidity Rainfall Rate (Hourly)
TemperatureF °F DewpointF °F PressureIn in Calm     Humidity % HourlyPrecipIn in
00:02 77.2 °F 72.7 °F 29.97 in Calm   2.0 mph 86 % 0.00 in
00:07 76.8 °F 72.7 °F 29.97 in Calm   2.0 mph 87 % 0.00 in
00:12 76.6 °F 72.5 °F 29.97 in Calm   1.0 mph 87 % 0.00 in
00:17 76.3 °F 72.5 °F 29.98 in Calm   1.0 mph 88 % 0.00 in
00:22 75.9 °F 72.1 °F 29.98 in Calm   1.0 mph 88 % 0.00 in
00:27 75.7 °F 72.3 °F 29.97 in Calm     89 % 0.00 in
00:32 75.6 °F 72.5 °F 29.97 in Calm     90 % 0.00 in
00:37 75.4 °F 72.5 °F 29.97 in Calm     91 % 0.00 in
00:42 75.2 °F 72.3 °F 29.97 in Calm     91 % 0.00 in
00:47 75.0 °F 72.1 °F 29.97 in Calm     91 % 0.00 in
00:52 75.0 °F 72.5 °F 29.97 in Calm     92 % 0.00 in
00:57 75.0 °F 72.5 °F 29.97 in Calm     92 % 0.00 in
01:02 74.8 °F 72.3 °F 29.97 in Calm     92 % 0.00 in
01:07 75.0 °F 72.9 °F 29.97 in Calm     93 % 0.00 in
01:12 74.8 °F 72.3 °F 29.97 in Calm     92 % 0.00 in
01:17 74.8 °F 72.7 °F 29.97 in Calm     93 % 0.00 in
01:22 74.7 °F 72.1 °F 29.97 in Calm     92 % 0.00 in
01:28 74.5 °F 72.3 °F 29.97 in Calm     93 % 0.00 in
01:33 74.1 °F 72.0 °F 29.97 in Calm     93 % 0.00 in
01:34 74.1 °F 72.0 °F 29.97 in Calm     93 % 0.00 in
01:39 73.9 °F 71.8 °F 29.97 in Calm     93 % 0.00 in
01:44 73.8 °F 71.6 °F 29.98 in Calm     93 % 0.00 in
01:49 73.6 °F 71.8 °F 29.98 in Calm     94 % 0.00 in
01:54 73.6 °F 71.8 °F 29.98 in Calm     94 % 0.00 in
01:59 73.6 °F 71.8 °F 29.98 in Calm     94 % 0.00 in
02:04 73.4 °F 71.6 °F 29.98 in Calm     94 % 0.00 in
02:09 73.2 °F 71.8 °F 29.98 in Calm     95 % 0.00 in
02:14 73.2 °F 71.8 °F 29.98 in Calm     95 % 0.00 in
02:19 73.0 °F 71.6 °F 29.98 in Calm     95 % 0.00 in
02:24 73.0 °F 71.6 °F 29.98 in Calm     95 % 0.00 in
02:29 72.9 °F 71.4 °F 29.98 in Calm     95 % 0.00 in
02:34 72.7 °F 71.2 °F 29.98 in Calm     95 % 0.00 in
02:39 72.7 °F 71.4 °F 29.98 in Calm     96 % 0.00 in
02:44 72.7 °F 71.4 °F 29.98 in Calm     96 % 0.00 in
02:49 72.7 °F 71.4 °F 29.98 in Calm     96 % 0.00 in
02:54 72.5 °F 71.2 °F 29.98 in Calm     96 % 0.00 in
02:59 72.3 °F 71.1 °F 29.98 in Calm     96 % 0.00 in
03:04 72.3 °F 71.1 °F 29.98 in Calm     96 % 0.00 in
03:09 72.1 °F 70.9 °F 29.98 in Calm     96 % 0.00 in
03:14 72.1 °F 71.2 °F 29.98 in Calm     97 % 0.00 in
03:16 72.1 °F 71.2 °F 29.98 in Calm     97 % 0.00 in
03:21 72.1 °F 71.2 °F 29.98 in Calm     97 % 0.00 in
03:26 72.1 °F 71.2 °F 29.98 in Calm     97 % 0.00 in
03:31 72.1 °F 70.9 °F 29.98 in Calm     96 % 0.00 in
03:36 72.0 °F 70.7 °F 29.98 in Calm     96 % 0.00 in
03:42 72.0 °F 70.7 °F 29.98 in Calm     96 % 0.00 in
03:47 71.8 °F 70.5 °F 29.98 in Calm     96 % 0.00 in
03:52 71.4 °F 70.2 °F 29.98 in Calm     96 % 0.00 in
03:57 71.2 °F 70.0 °F 29.98 in Calm     96 % 0.00 in
04:02 71.2 °F 70.3 °F 29.98 in Calm     97 % 0.00 in
04:07 71.2 °F 70.3 °F 29.98 in Calm     97 % 0.00 in
04:12 71.2 °F 70.3 °F 29.98 in Calm     97 % 0.00 in
04:17 71.2 °F 70.3 °F 29.98 in Calm     97 % 0.00 in
04:22 71.2 °F 70.3 °F 29.98 in Calm     97 % 0.00 in
04:27 71.2 °F 70.3 °F 29.98 in Calm     97 % 0.00 in
04:32 71.2 °F 70.3 °F 29.98 in Calm     97 % 0.00 in
04:37 71.1 °F 70.2 °F 29.98 in Calm     97 % 0.00 in
04:42 70.9 °F 70.0 °F 29.98 in Calm     97 % 0.00 in
04:47 70.7 °F 69.8 °F 29.98 in Calm     97 % 0.00 in
04:52 70.5 °F 69.6 °F 29.98 in Calm     97 % 0.00 in
04:57 70.3 °F 69.4 °F 29.98 in Calm     97 % 0.00 in
05:02 70.2 °F 69.3 °F 29.98 in Calm     97 % 0.00 in
05:07 70.3 °F 69.8 °F 29.98 in Calm     98 % 0.00 in
05:12 70.3 °F 69.8 °F 29.99 in Calm     98 % 0.00 in
05:17 70.3 °F 69.8 °F 29.99 in Calm     98 % 0.00 in
05:22 70.2 °F 69.6 °F 29.98 in Calm     98 % 0.00 in
05:27 70.2 °F 69.6 °F 29.99 in Calm     98 % 0.00 in
05:32 70.2 °F 69.6 °F 29.99 in Calm     98 % 0.00 in
05:37 70.2 °F 69.6 °F 29.98 in Calm     98 % 0.00 in
05:42 70.0 °F 69.4 °F 29.99 in Calm     98 % 0.00 in
05:47 70.0 °F 69.4 °F 29.99 in Calm     98 % 0.00 in
05:52 70.0 °F 69.4 °F 29.99 in Calm     98 % 0.00 in
05:57 70.2 °F 69.8 °F 29.99 in Calm     99 % 0.00 in
06:02 70.0 °F 69.4 °F 29.99 in Calm     98 % 0.00 in
06:07 70.0 °F 69.4 °F 29.99 in Calm     98 % 0.00 in
06:12 69.8 °F 69.3 °F 29.99 in Calm     98 % 0.00 in
06:17 70.0 °F 69.4 °F 29.99 in Calm     98 % 0.00 in
06:22 70.0 °F 69.4 °F 29.99 in Calm     98 % 0.00 in
06:27 70.0 °F 69.6 °F 29.99 in Calm     99 % 0.00 in
06:32 69.8 °F 69.4 °F 30.00 in Calm     99 % 0.00 in
06:37 69.6 °F 69.3 °F 30.00 in Calm     99 % 0.00 in
06:42 69.6 °F 69.3 °F 30.00 in Calm     99 % 0.00 in
06:47 69.6 °F 69.3 °F 30.00 in Calm     99 % 0.00 in
06:52 70.0 °F 69.6 °F 30.00 in Calm     99 % 0.00 in
06:57 70.2 °F 69.8 °F 30.00 in Calm     99 % 0.00 in
07:02 70.2 °F 69.8 °F 30.00 in Calm     99 % 0.00 in
07:07 70.3 °F 70.0 °F 30.00 in Calm     99 % 0.00 in
07:12 70.2 °F 69.8 °F 30.01 in Calm     99 % 0.00 in
07:17 70.2 °F 69.8 °F 30.01 in Calm     99 % 0.00 in
07:22 70.0 °F 69.6 °F 30.01 in Calm     99 % 0.00 in
07:27 70.2 °F 69.8 °F 30.01 in Calm     99 % 0.00 in
07:32 70.2 °F 69.8 °F 30.01 in Calm     99 % 0.00 in
07:37 70.2 °F 69.8 °F 30.01 in Calm     99 % 0.00 in
07:42 70.3 °F 70.0 °F 30.01 in Calm     99 % 0.00 in
07:47 70.5 °F 70.2 °F 30.01 in Calm     99 % 0.00 in
07:52 70.9 °F 70.5 °F 30.01 in Calm     99 % 0.00 in
07:57 71.2 °F 70.9 °F 30.01 in Calm     99 % 0.00 in
08:07 72.1 °F 71.8 °F 30.01 in Calm   2.0 mph 99 % 0.00 in
08:12 72.7 °F 72.3 °F 30.01 in Calm   2.0 mph 99 % 0.00 in
08:17 73.2 °F 72.9 °F 30.01 in NW 1.0 mph 2.0 mph 99 % 0.00 in
08:22 73.6 °F 73.0 °F 30.01 in Calm   2.0 mph 98 % 0.00 in
08:27 74.3 °F 73.8 °F 30.01 in Calm   2.0 mph 98 % 0.00 in
08:32 75.0 °F 74.5 °F 30.01 in Calm   2.0 mph 98 % 0.00 in
08:37 75.9 °F 75.0 °F 30.01 in Calm   1.0 mph 97 % 0.00 in
08:42 76.5 °F 74.8 °F 30.02 in Calm   1.0 mph 95 % 0.00 in
08:47 76.5 °F 74.7 °F 30.02 in Calm   3.0 mph 94 % 0.00 in
08:52 76.5 °F 74.7 °F 30.02 in NNW 1.0 mph 3.0 mph 94 % 0.00 in
08:57 76.6 °F 74.8 °F 30.02 in Calm   3.0 mph 94 % 0.00 in
09:02 77.0 °F 75.2 °F 30.03 in Calm   2.0 mph 94 % 0.00 in
09:07 77.4 °F 75.2 °F 30.02 in Calm   2.0 mph 93 % 0.00 in
09:12 77.5 °F 75.0 °F 30.03 in ENE 1.0 mph 1.0 mph 92 % 0.00 in
09:17 77.5 °F 75.0 °F 30.03 in Calm   1.0 mph 92 % 0.00 in
09:22 77.5 °F 75.0 °F 30.03 in ESE 1.0 mph 2.0 mph 92 % 0.00 in
09:27 77.5 °F 75.0 °F 30.03 in East 1.0 mph 2.0 mph 92 % 0.00 in
09:32 77.9 °F 75.4 °F 30.03 in Calm   2.0 mph 92 % 0.00 in
09:36 78.6 °F 75.7 °F 30.03 in Calm   2.0 mph 91 % 0.00 in
09:42 79.3 °F 76.5 °F 30.04 in Calm   2.0 mph 91 % 0.00 in
09:47 80.2 °F 77.0 °F 30.04 in Calm   1.0 mph 90 % 0.00 in
09:52 81.0 °F 76.6 °F 30.04 in Calm   2.0 mph 87 % 0.00 in
09:57 81.7 °F 77.7 °F 30.04 in Calm   2.0 mph 88 % 0.00 in
10:02 82.2 °F 77.2 °F 30.04 in East 2.0 mph 3.0 mph 85 % 0.00 in
10:07 82.6 °F 77.9 °F 30.04 in East 2.0 mph 3.0 mph 86 % 0.00 in
10:12 82.9 °F 77.5 °F 30.04 in ESE 2.0 mph 3.0 mph 84 % 0.00 in
10:17 82.8 °F 77.7 °F 30.04 in Calm   4.0 mph 85 % 0.00 in
10:22 83.7 °F 78.3 °F 30.04 in SE 1.0 mph 4.0 mph 84 % 0.00 in
10:27 84.0 °F 77.5 °F 30.04 in NNE 1.0 mph 4.0 mph 81 % 0.00 in
10:32 83.7 °F 77.2 °F 30.04 in Calm   3.0 mph 81 % 0.00 in
10:37 83.7 °F 77.5 °F 30.04 in North 1.0 mph 3.0 mph 82 % 0.00 in
10:42 84.0 °F 77.5 °F 30.04 in East 2.0 mph 3.0 mph 81 % 0.00 in
10:47 84.4 °F 77.9 °F 30.04 in ESE 2.0 mph 3.0 mph 81 % 0.00 in
10:52 85.1 °F 76.6 °F 30.04 in East 3.0 mph 4.0 mph 76 % 0.00 in
10:57 84.9 °F 76.8 °F 30.04 in Calm   4.0 mph 77 % 0.00 in
11:02 85.6 °F 76.8 °F 30.04 in NE 1.0 mph 4.0 mph 75 % 0.00 in
11:07 85.8 °F 75.7 °F 30.04 in Calm   4.0 mph 72 % 0.00 in
11:12 86.2 °F 77.0 °F 30.04 in SE 1.0 mph 4.0 mph 74 % 0.00 in
11:17 86.5 °F 77.7 °F 30.04 in SW 2.0 mph 4.0 mph 75 % 0.00 in
11:22 86.7 °F 77.0 °F 30.04 in Calm   4.0 mph 73 % 0.00 in
11:27 86.5 °F 76.5 °F 30.04 in SSE 3.0 mph 4.0 mph 72 % 0.00 in
11:32 86.5 °F 76.8 °F 30.04 in Calm   4.0 mph 73 % 0.00 in
11:37 87.3 °F 77.2 °F 30.04 in SE 1.0 mph 4.0 mph 72 % 0.00 in
11:42 88.0 °F 77.4 °F 30.04 in East 3.0 mph 3.0 mph 71 % 0.00 in
11:47 88.3 °F 77.7 °F 30.04 in SSW 1.0 mph 4.0 mph 71 % 0.00 in
11:52 89.1 °F 76.6 °F 30.04 in Calm   5.0 mph 67 % 0.00 in
11:57 89.1 °F 76.6 °F 30.04 in NW 2.0 mph 5.0 mph 67 % 0.00 in
12:02 89.1 °F 77.5 °F 30.03 in Calm   5.0 mph 69 % 0.00 in
12:07 89.8 °F 78.3 °F 30.03 in South 3.0 mph 4.0 mph 69 % 0.00 in
12:12 89.8 °F 75.9 °F 30.03 in NNE 2.0 mph 6.0 mph 64 % 0.00 in
12:17 89.2 °F 74.5 °F 30.03 in ENE 2.0 mph 6.0 mph 62 % 0.00 in
12:22 88.9 °F 75.2 °F 30.03 in SSW 4.0 mph 6.0 mph 64 % 0.00 in
12:27 88.2 °F 73.0 °F 30.03 in ESE 2.0 mph 8.0 mph 61 % 0.00 in
12:32 88.3 °F 74.7 °F 30.03 in NW 2.0 mph 8.0 mph 64 % 0.00 in
12:37 89.1 °F 75.7 °F 30.03 in SSW 1.0 mph 8.0 mph 65 % 0.00 in
12:42 90.0 °F 75.7 °F 30.02 in South 2.0 mph 7.0 mph 63 % 0.00 in
12:47 91.2 °F 77.4 °F 30.02 in SSE 1.0 mph 7.0 mph 64 % 0.00 in
12:52 92.1 °F 76.3 °F 30.02 in South 5.0 mph 5.0 mph 60 % 0.00 in
12:57 91.8 °F 74.3 °F 30.02 in Calm   6.0 mph 57 % 0.00 in
13:02 91.6 °F 74.1 °F 30.02 in SSW 2.0 mph 7.0 mph 57 % 0.00 in
13:07 91.8 °F 74.8 °F 30.01 in Calm   7.0 mph 58 % 0.00 in
13:12 91.9 °F 73.4 °F 30.01 in ESE 4.0 mph 7.0 mph 55 % 0.00 in
13:17 91.6 °F 74.1 °F 30.01 in Calm   5.0 mph 57 % 0.00 in
13:22 91.8 °F 73.8 °F 30.01 in ESE 1.0 mph 5.0 mph 56 % 0.00 in
13:27 91.6 °F 74.1 °F 30.01 in North 1.0 mph 6.0 mph 57 % 0.00 in
13:32 92.1 °F 75.7 °F 30.00 in East 4.0 mph 7.0 mph 59 % 0.00 in
13:37 91.8 °F 74.8 °F 30.00 in SE 1.0 mph 7.0 mph 58 % 0.00 in
13:42 91.9 °F 75.6 °F 30.00 in SSE 2.0 mph 7.0 mph 59 % 0.00 in
13:47 92.3 °F 72.7 °F 30.00 in East 5.0 mph 5.0 mph 53 % 0.00 in
13:52 91.9 °F 73.9 °F 29.99 in SE 4.0 mph 6.0 mph 56 % 0.00 in
13:57 91.9 °F 73.9 °F 29.99 in SE 2.0 mph 7.0 mph 56 % 0.00 in
14:02 91.6 °F 73.6 °F 29.99 in SSE 2.0 mph 7.0 mph 56 % 0.00 in
14:07 90.7 °F 72.3 °F 29.99 in Calm   7.0 mph 55 % 0.00 in
14:12 90.9 °F 74.1 °F 29.99 in SSW 1.0 mph 7.0 mph 58 % 0.00 in
14:17 91.6 °F 74.7 °F 29.99 in Calm   6.0 mph 58 % 0.00 in
14:22 92.5 °F 72.9 °F 29.98 in ESE 4.0 mph 6.0 mph 53 % 0.00 in
14:27 92.1 °F 72.5 °F 29.98 in Calm   7.0 mph 53 % 0.00 in
14:32 92.5 °F 75.0 °F 29.98 in SW 1.0 mph 7.0 mph 57 % 0.00 in
14:37 92.8 °F 74.8 °F 29.98 in SSE 3.0 mph 7.0 mph 56 % 0.00 in
14:42 92.8 °F 74.3 °F 29.97 in SW 1.0 mph 6.0 mph 55 % 0.00 in
14:47 93.0 °F 74.5 °F 29.97 in South 1.0 mph 7.0 mph 55 % 0.00 in
14:52 92.8 °F 73.2 °F 29.97 in SE 2.0 mph 7.0 mph 53 % 0.00 in
14:57 92.7 °F 73.6 °F 29.97 in South 2.0 mph 7.0 mph 54 % 0.00 in
15:02 92.7 °F 73.6 °F 29.96 in SSW 4.0 mph 5.0 mph 54 % 0.00 in
15:07 93.0 °F 73.9 °F 29.96 in Calm   5.0 mph 54 % 0.00 in
15:12 93.4 °F 74.3 °F 29.96 in South 2.0 mph 6.0 mph 54 % 0.00 in
15:17 93.9 °F 74.7 °F 29.96 in South 1.0 mph 6.0 mph 54 % 0.00 in
15:22 94.1 °F 72.0 °F 29.96 in SSW 1.0 mph 6.0 mph 49 % 0.00 in
15:27 93.6 °F 72.1 °F 29.96 in South 1.0 mph 5.0 mph 50 % 0.00 in
15:32 93.2 °F 72.3 °F 29.95 in SSW 1.0 mph 5.0 mph 51 % 0.00 in
15:37 93.6 °F 73.2 °F 29.95 in NW 1.0 mph 4.0 mph 52 % 0.00 in
15:42 93.9 °F 73.6 °F 29.95 in Calm   3.0 mph 52 % 0.00 in
15:47 94.3 °F 72.9 °F 29.94 in Calm   4.0 mph 50 % 0.00 in
15:52 93.9 °F 73.0 °F 29.94 in NNW 2.0 mph 5.0 mph 51 % 0.00 in
15:57 93.9 °F 73.6 °F 29.94 in ENE 2.0 mph 5.0 mph 52 % 0.00 in
16:02 93.9 °F 74.1 °F 29.94 in SE 2.0 mph 5.0 mph 53 % 0.00 in
16:07 94.1 °F 74.3 °F 29.94 in NE 3.0 mph 5.0 mph 53 % 0.00 in
16:12 93.6 °F 72.7 °F 29.94 in ESE 4.0 mph 6.0 mph 51 % 0.00 in
16:17 93.4 °F 72.5 °F 29.94 in ESE 1.0 mph 6.0 mph 51 % 0.00 in
16:22 93.2 °F 72.9 °F 29.94 in Calm   6.0 mph 52 % 0.00 in
16:32 92.3 °F 72.7 °F 29.94 in ESE 1.0 mph 4.0 mph 53 % 0.00 in
16:37 92.5 °F 71.8 °F 29.93 in SE 2.0 mph 4.0 mph 51 % 0.00 in
16:42 92.1 °F 72.0 °F 29.93 in Calm   4.0 mph 52 % 0.00 in
16:47 92.3 °F 72.7 °F 29.94 in Calm   4.0 mph 53 % 0.00 in
16:52 92.7 °F 72.5 °F 29.93 in ESE 1.0 mph 4.0 mph 52 % 0.00 in
17:02 91.9 °F 72.9 °F 29.93 in Calm   2.0 mph 54 % 0.00 in
17:07 91.9 °F 72.9 °F 29.93 in NW 1.0 mph 4.0 mph 54 % 0.00 in
17:12 91.8 °F 72.7 °F 29.93 in Calm   4.0 mph 54 % 0.00 in
17:17 91.6 °F 72.5 °F 29.93 in WNW 1.0 mph 4.0 mph 54 % 0.00 in
17:22 91.2 °F 73.4 °F 29.93 in ESE 2.0 mph 4.0 mph 56 % 0.00 in
17:27 90.9 °F 72.5 °F 29.93 in NE 2.0 mph 4.0 mph 55 % 0.00 in
17:32 90.9 °F 73.6 °F 29.93 in Calm   4.0 mph 57 % 0.00 in
17:37 90.7 °F 73.4 °F 29.93 in NNW 1.0 mph 4.0 mph 57 % 0.00 in
17:47 90.5 °F 73.8 °F 29.93 in ENE 2.0 mph 4.0 mph 58 % 0.00 in
17:52 90.3 °F 73.6 °F 29.93 in Calm   4.0 mph 58 % 0.00 in
17:57 90.9 °F 74.1 °F 29.93 in NE 3.0 mph 4.0 mph 58 % 0.00 in
18:02 90.9 °F 74.1 °F 29.93 in Calm   4.0 mph 58 % 0.00 in
18:07 90.9 °F 74.1 °F 29.93 in Calm   4.0 mph 58 % 0.00 in
18:12 90.7 °F 73.9 °F 29.93 in ESE 1.0 mph 4.0 mph 58 % 0.00 in
18:17 90.3 °F 74.1 °F 29.93 in ESE 1.0 mph 5.0 mph 59 % 0.00 in
18:22 90.1 °F 73.9 °F 29.94 in ESE 3.0 mph 5.0 mph 59 % 0.00 in
18:27 89.8 °F 73.6 °F 29.93 in East 1.0 mph 5.0 mph 59 % 0.00 in
18:32 89.4 °F 73.8 °F 29.94 in Calm   5.0 mph 60 % 0.00 in
18:37 89.2 °F 73.6 °F 29.94 in East 1.0 mph 5.0 mph 60 % 0.00 in
18:42 89.1 °F 73.4 °F 29.94 in East 2.0 mph 4.0 mph 60 % 0.00 in
18:47 88.9 °F 73.2 °F 29.94 in Calm   4.0 mph 60 % 0.00 in
18:52 88.9 °F 73.8 °F 29.94 in Calm   4.0 mph 61 % 0.00 in
18:57 88.5 °F 73.4 °F 29.94 in ESE 2.0 mph 4.0 mph 61 % 0.00 in
19:02 88.5 °F 73.4 °F 29.94 in East 1.0 mph 4.0 mph 61 % 0.00 in
19:07 88.3 °F 73.2 °F 29.94 in Calm   3.0 mph 61 % 0.00 in
19:17 88.0 °F 73.8 °F 29.94 in Calm   3.0 mph 63 % 0.00 in
19:22 87.6 °F 73.9 °F 29.94 in Calm   2.0 mph 64 % 0.00 in
19:27 87.3 °F 74.1 °F 29.94 in SE 1.0 mph 2.0 mph 65 % 0.00 in
19:32 87.1 °F 73.9 °F 29.94 in NE 1.0 mph 2.0 mph 65 % 0.00 in
19:37 86.7 °F 73.9 °F 29.94 in Calm   3.0 mph 66 % 0.00 in
19:42 86.5 °F 74.3 °F 29.94 in Calm   3.0 mph 67 % 0.00 in
19:47 86.4 °F 74.5 °F 29.94 in Calm   5.0 mph 68 % 0.00 in
19:52 86.2 °F 75.2 °F 29.94 in East 3.0 mph 5.0 mph 70 % 0.00 in
19:57 85.8 °F 74.8 °F 29.94 in SSE 3.0 mph 6.0 mph 70 % 0.00 in
20:02 85.8 °F 75.4 °F 29.94 in ESE 3.0 mph 6.0 mph 71 % 0.00 in
20:07 85.6 °F 75.2 °F 29.94 in Calm   6.0 mph 71 % 0.00 in
20:12 85.5 °F 75.4 °F 29.95 in SE 1.0 mph 5.0 mph 72 % 0.00 in
20:17 85.5 °F 75.4 °F 29.95 in East 1.0 mph 5.0 mph 72 % 0.00 in
20:22 85.3 °F 75.6 °F 29.95 in SE 1.0 mph 5.0 mph 73 % 0.00 in
20:27 85.1 °F 75.4 °F 29.95 in SSE 2.0 mph 7.0 mph 73 % 0.00 in
20:33 84.9 °F 75.7 °F 29.96 in ESE 1.0 mph 7.0 mph 74 % 0.00 in
20:38 84.7 °F 75.6 °F 29.96 in Calm   7.0 mph 74 % 0.00 in
20:43 84.6 °F 75.7 °F 29.96 in SSE 2.0 mph 4.0 mph 75 % 0.00 in
20:48 84.4 °F 75.9 °F 29.96 in ESE 2.0 mph 5.0 mph 76 % 0.00 in
20:53 84.2 °F 75.7 °F 29.96 in Calm   5.0 mph 76 % 0.00 in
20:58 84.0 °F 76.1 °F 29.96 in ESE 3.0 mph 5.0 mph 77 % 0.00 in
21:03 84.0 °F 76.1 °F 29.96 in Calm   5.0 mph 77 % 0.00 in
21:08 83.8 °F 76.3 °F 29.96 in Calm   5.0 mph 78 % 0.00 in
21:13 83.7 °F 76.5 °F 29.97 in SSE 1.0 mph 5.0 mph 79 % 0.00 in
21:18 83.5 °F 76.3 °F 29.97 in East 3.0 mph 5.0 mph 79 % 0.00 in
21:23 83.5 °F 76.3 °F 29.97 in SE 1.0 mph 4.0 mph 79 % 0.00 in
21:28 83.3 °F 76.1 °F 29.97 in Calm   6.0 mph 79 % 0.00 in
21:33 83.1 °F 76.3 °F 29.97 in East 6.0 mph 6.0 mph 80 % 0.00 in
21:38 82.9 °F 76.1 °F 29.97 in SE 3.0 mph 6.0 mph 80 % 0.00 in
21:43 82.9 °F 76.5 °F 29.97 in SE 2.0 mph 6.0 mph 81 % 0.00 in
21:48 82.8 °F 76.6 °F 29.97 in SSE 2.0 mph 6.0 mph 82 % 0.00 in
21:53 82.6 °F 76.5 °F 29.98 in SSE 2.0 mph 6.0 mph 82 % 0.00 in
21:58 82.6 °F 76.8 °F 29.98 in Calm   5.0 mph 83 % 0.00 in
22:03 82.4 °F 77.0 °F 29.98 in East 1.0 mph 5.0 mph 84 % 0.00 in
22:08 82.2 °F 76.8 °F 29.98 in SE 2.0 mph 5.0 mph 84 % 0.00 in
22:14 82.0 °F 77.0 °F 29.98 in Calm   3.0 mph 85 % 0.00 in
22:19 81.9 °F 76.8 °F 29.98 in ESE 1.0 mph 3.0 mph 85 % 0.00 in
22:22 81.9 °F 76.8 °F 29.98 in ESE 1.0 mph 3.0 mph 85 % 0.00 in
22:23 81.9 °F 77.2 °F 29.98 in ESE 2.0 mph 3.0 mph 86 % 0.00 in
22:28 81.7 °F 77.0 °F 29.98 in ESE 1.0 mph 3.0 mph 86 % 0.00 in
22:33 81.7 °F 77.0 °F 29.98 in ESE 2.0 mph 3.0 mph 86 % 0.00 in
22:38 81.5 °F 77.2 °F 29.98 in Calm   3.0 mph 87 % 0.00 in
22:43 81.3 °F 77.0 °F 29.99 in Calm   3.0 mph 87 % 0.00 in
22:53 81.1 °F 77.2 °F 29.99 in ESE 1.0 mph 3.0 mph 88 % 0.00 in
22:58 81.0 °F 77.0 °F 29.99 in Calm   3.0 mph 88 % 0.00 in
23:03 81.0 °F 77.4 °F 29.99 in Calm   3.0 mph 89 % 0.00 in
23:08 80.8 °F 77.2 °F 29.99 in Calm   2.0 mph 89 % 0.00 in
23:13 80.8 °F 77.2 °F 29.99 in ESE 1.0 mph 2.0 mph 89 % 0.00 in
23:18 80.8 °F 77.2 °F 29.98 in Calm   2.0 mph 89 % 0.00 in
23:23 80.6 °F 77.4 °F 29.98 in Calm   2.0 mph 90 % 0.00 in
23:28 80.4 °F 77.2 °F 29.98 in Calm   2.0 mph 90 % 0.00 in
23:33 80.2 °F 77.0 °F 29.98 in Calm   2.0 mph 90 % 0.00 in
23:38 80.1 °F 77.2 °F 29.98 in Calm   1.0 mph 91 % 0.00 in
23:43 79.9 °F 77.0 °F 29.98 in Calm   1.0 mph 91 % 0.00 in
23:48 79.7 °F 76.8 °F 29.98 in Calm   1.0 mph 91 % 0.00 in
23:53 79.5 °F 77.0 °F 29.98 in East 1.0 mph 1.0 mph 92 % 0.00 in
23:58 79.5 °F 77.0 °F 29.97 in Calm   1.0 mph 92 % 0.00 in
Spring, Texas: Villages of Bridgestone
Compliments of Weather Underground - 2.75 mb

Script developed by  Jim McMurry - jmcmurry@mwt.net Adapted for the template by  Wim van der Kuil - Leuven-Template.eu

You find our weather info also at:

UK Metoffice

WeatherCloud

Weather Underground

Mid-South Weather Network

AWEKAS

Citizen Weather Observer Program (CWOP)

HAMweather, WeatherForYou, PWS Weather

Equipment we use:

Weather-station
Davis Vantage Vue

Weather-program
Meteohub

Weather-server
Debian 7.9 x86 (Guest)

Provider
DreamHost

Davis Vantage Vue

Meteohub

Debian 7.9 x86 (Guest)

DreamHost